createdAt,value
2023-03-16T00:01:38.159Z,2.55
2023-03-16T00:04:41.261Z,2.54
2023-03-16T00:07:44.409Z,2.52
2023-03-16T00:10:48.060Z,2.50
2023-03-16T00:13:51.639Z,2.49
2023-03-16T00:16:54.765Z,2.48
2023-03-16T00:19:58.030Z,2.46
2023-03-16T00:23:02.723Z,2.44
2023-03-16T00:26:08.218Z,2.42
2023-03-16T00:29:12.027Z,2.40
2023-03-16T00:32:20.800Z,2.38
2023-03-16T00:35:25.509Z,2.36
2023-03-16T00:38:31.265Z,2.33
2023-03-16T00:41:38.138Z,2.31
2023-03-16T00:44:42.138Z,2.28
2023-03-16T00:47:45.322Z,2.26
2023-03-16T00:50:49.511Z,2.24
2023-03-16T00:53:52.671Z,2.22
2023-03-16T00:56:56.301Z,2.20
2023-03-16T01:00:00.184Z,2.17
2023-03-16T01:03:03.557Z,2.15
2023-03-16T01:06:12.898Z,2.13
2023-03-16T01:09:16.074Z,2.10
2023-03-16T01:12:20.186Z,2.09
2023-03-16T01:15:23.230Z,2.07
2023-03-16T01:18:27.850Z,2.06
2023-03-16T01:21:33.725Z,2.04
2023-03-16T01:24:37.790Z,2.02
2023-03-16T01:27:43.116Z,2.00
2023-03-16T01:30:46.267Z,1.99
2023-03-16T01:33:51.318Z,1.96
2023-03-16T01:36:57.926Z,1.94
2023-03-16T01:40:06.876Z,1.92
2023-03-16T01:43:11.669Z,1.90
2023-03-16T01:46:24.056Z,1.87
2023-03-16T01:49:33.506Z,1.84
2023-03-16T01:52:38.685Z,1.81
2023-03-16T01:55:42.631Z,1.80
2023-03-16T01:58:46.980Z,1.77
2023-03-16T02:01:52.036Z,1.76
2023-03-16T02:05:02.115Z,1.74
2023-03-16T02:08:06.690Z,1.73
2023-03-16T02:11:10.385Z,1.71
2023-03-16T02:14:21.469Z,1.70
2023-03-16T02:17:27.887Z,1.68
2023-03-16T02:20:42.657Z,1.66
2023-03-16T02:23:47.097Z,1.64
2023-03-16T02:26:57.660Z,1.62
2023-03-16T02:30:08.354Z,1.60
2023-03-16T02:33:21.323Z,1.58
2023-03-16T02:36:24.850Z,1.56
2023-03-16T02:39:28.321Z,1.55
2023-03-16T02:42:31.847Z,1.53
2023-03-16T02:45:55.059Z,1.50
2023-03-16T02:49:17.828Z,1.48
2023-03-16T02:52:21.633Z,1.46
2023-03-16T02:55:24.807Z,1.44
2023-03-16T02:58:29.772Z,1.43
2023-03-16T03:01:34.946Z,1.41
2023-03-16T03:04:38.302Z,1.41
2023-03-16T03:07:42.751Z,1.39
2023-03-16T03:10:46.266Z,1.38
2023-03-16T03:13:49.772Z,1.35
2023-03-16T03:16:56.036Z,1.34
2023-03-16T03:20:02.409Z,1.32
2023-03-16T03:23:05.671Z,1.30
2023-03-16T03:26:08.774Z,1.30
2023-03-16T03:29:12.646Z,1.28
2023-03-16T03:32:16.558Z,1.27
2023-03-16T03:35:21.372Z,1.27
2023-03-16T03:38:25.914Z,1.26
2023-03-16T03:41:30.601Z,1.24
2023-03-16T03:44:37.143Z,1.24
2023-03-16T03:47:41.477Z,1.23
2023-03-16T03:50:46.170Z,1.21
2023-03-16T03:53:59.942Z,1.20
2023-03-16T03:57:21.948Z,1.18
2023-03-16T04:00:25.892Z,1.18
2023-03-16T04:03:29.326Z,1.18
2023-03-16T04:06:32.588Z,1.17
2023-03-16T04:09:36.214Z,1.18
2023-03-16T04:12:39.522Z,1.17
2023-03-16T04:15:47.022Z,1.17
2023-03-16T04:18:57.878Z,1.16
2023-03-16T04:22:01.628Z,1.15
2023-03-16T04:25:05.285Z,1.14
2023-03-16T04:28:09.022Z,1.14
2023-03-16T04:31:14.234Z,1.13
2023-03-16T04:34:24.930Z,1.11
2023-03-16T04:37:29.977Z,1.10
2023-03-16T04:40:33.159Z,1.09
2023-03-16T04:43:40.942Z,1.08
2023-03-16T04:46:53.763Z,1.06
2023-03-16T04:49:57.440Z,1.05
2023-03-16T04:53:02.187Z,1.03
2023-03-16T04:56:07.518Z,1.02
2023-03-16T04:59:11.950Z,1.01
2023-03-16T05:02:22.467Z,0.99
2023-03-16T05:05:26.048Z,0.98
2023-03-16T05:08:29.194Z,0.97
2023-03-16T05:11:32.337Z,0.96
2023-03-16T05:14:36.358Z,0.95
2023-03-16T05:17:57.923Z,0.95
2023-03-16T05:21:01.984Z,0.94
2023-03-16T05:24:12.499Z,0.94
2023-03-16T05:27:16.041Z,0.94
2023-03-16T05:30:20.152Z,0.95
2023-03-16T05:33:23.625Z,0.96
2023-03-16T05:36:31.386Z,1.00
2023-03-16T05:39:41.166Z,1.06
2023-03-16T05:42:49.379Z,1.12
2023-03-16T05:45:53.174Z,1.19
2023-03-16T05:48:56.585Z,1.26
2023-03-16T05:52:00.512Z,1.31
2023-03-16T05:55:05.958Z,1.34
2023-03-16T05:58:09.256Z,1.39
2023-03-16T06:01:13.524Z,1.45
2023-03-16T06:04:17.999Z,1.52
2023-03-16T06:07:21.358Z,1.59
2023-03-16T06:10:26.840Z,1.65
2023-03-16T06:13:30.817Z,1.73
2023-03-16T06:16:34.173Z,1.78
2023-03-16T06:19:37.621Z,1.84
2023-03-16T06:22:42.497Z,1.90
2023-03-16T06:25:50.244Z,1.97
2023-03-16T06:28:54.629Z,2.02
2023-03-16T06:31:58.208Z,2.06
2023-03-16T06:35:03.555Z,2.09
2023-03-16T06:38:07.388Z,2.12
2023-03-16T06:41:42.910Z,2.17
2023-03-16T06:44:47.899Z,2.23
2023-03-16T06:47:51.610Z,2.31
2023-03-16T06:50:55.241Z,2.40
2023-03-16T06:54:01.533Z,2.51
2023-03-16T06:57:05.832Z,2.57
2023-03-16T07:00:15.471Z,2.60
2023-03-16T07:03:19.474Z,2.60
2023-03-16T07:06:27.607Z,2.60
2023-03-16T07:09:31.685Z,2.62
2023-03-16T07:12:35.089Z,2.69
2023-03-16T07:15:38.415Z,2.78
2023-03-16T07:18:44.475Z,2.87
2023-03-16T07:21:49.481Z,2.96
2023-03-16T07:24:57.521Z,3.06
2023-03-16T07:28:01.947Z,3.16
2023-03-16T07:31:09.577Z,3.27
2023-03-16T07:34:15.186Z,3.38
2023-03-16T07:37:25.481Z,3.48
2023-03-16T07:40:30.973Z,3.60
2023-03-16T07:43:40.527Z,3.70
2023-03-16T07:46:45.819Z,3.79
2023-03-16T07:49:48.946Z,3.87
2023-03-16T07:52:52.329Z,3.95
2023-03-16T07:55:55.688Z,4.00
2023-03-16T07:58:58.879Z,4.08
2023-03-16T08:02:02.282Z,4.17
2023-03-16T08:05:06.121Z,4.26
2023-03-16T08:08:10.210Z,4.35
2023-03-16T08:11:14.796Z,4.43
2023-03-16T08:14:24.211Z,4.51
2023-03-16T08:17:37.813Z,4.58
2023-03-16T08:20:42.412Z,4.62
2023-03-16T08:23:49.200Z,4.70
2023-03-16T08:26:53.442Z,4.76
2023-03-16T08:29:56.726Z,4.82
2023-03-16T08:33:03.373Z,4.89
2023-03-16T08:36:08.716Z,4.99
2023-03-16T08:39:12.227Z,5.13
2023-03-16T08:42:20.358Z,5.29
2023-03-16T08:45:28.718Z,5.45
2023-03-16T08:48:34.723Z,5.57
2023-03-16T08:51:38.067Z,5.61
2023-03-16T08:54:49.776Z,5.60
2023-03-16T08:58:00.085Z,5.58
2023-03-16T09:01:05.836Z,5.63
2023-03-16T09:04:09.676Z,5.68
2023-03-16T09:07:13.632Z,5.70
2023-03-16T09:10:17.469Z,5.67
2023-03-16T09:13:20.703Z,5.64
2023-03-16T09:16:25.917Z,5.60
2023-03-16T09:19:34.836Z,5.53
2023-03-16T09:22:44.213Z,5.49
2023-03-16T09:25:48.201Z,5.46
2023-03-16T09:28:51.581Z,5.43
2023-03-16T09:31:54.957Z,5.43
2023-03-16T09:34:58.248Z,5.42
2023-03-16T09:38:05.938Z,5.43
2023-03-16T09:41:25.375Z,5.57
2023-03-16T09:44:50.562Z,5.77
2023-03-16T09:47:58.272Z,5.83
2023-03-16T09:51:05.605Z,5.87
2023-03-16T09:54:29.489Z,6.05
2023-03-16T09:57:36.868Z,6.36
2023-03-16T10:01:00.860Z,6.57
2023-03-16T10:04:07.649Z,6.62
2023-03-16T10:07:11.449Z,6.63
2023-03-16T10:10:18.406Z,6.65
2023-03-16T10:13:40.450Z,6.66
2023-03-16T10:17:01.614Z,6.70
2023-03-16T10:20:18.717Z,6.81
2023-03-16T10:23:24.760Z,6.77
2023-03-16T10:26:39.237Z,6.71
2023-03-16T10:29:42.304Z,6.84
2023-03-16T10:32:46.112Z,7.01
2023-03-16T10:36:05.757Z,7.02
2023-03-16T10:39:12.582Z,6.99
2023-03-16T10:42:18.631Z,6.96
2023-03-16T10:45:34.483Z,7.16
2023-03-16T10:48:39.164Z,7.35
2023-03-16T10:51:44.342Z,7.36
2023-03-16T10:55:00.001Z,7.25
2023-03-16T10:58:04.282Z,7.10
2023-03-16T11:01:21.775Z,6.98
2023-03-16T11:04:25.714Z,6.87
2023-03-16T11:07:28.910Z,6.76
2023-03-16T11:10:46.089Z,6.74
2023-03-16T11:14:00.173Z,6.99
2023-03-16T11:17:10.839Z,7.34
2023-03-16T11:20:24.030Z,7.81
2023-03-16T11:23:34.375Z,8.25
2023-03-16T11:26:42.999Z,8.69
2023-03-16T11:29:59.608Z,9.11
2023-03-16T11:33:04.213Z,9.40
2023-03-16T11:36:31.716Z,9.43
2023-03-16T11:39:42.978Z,9.35
2023-03-16T11:42:49.137Z,9.39
2023-03-16T11:46:02.858Z,9.42
2023-03-16T11:49:12.189Z,9.46
2023-03-16T11:52:33.440Z,9.45
2023-03-16T11:56:09.318Z,9.33
2023-03-16T11:59:31.081Z,9.12
2023-03-16T12:02:57.392Z,8.93
2023-03-16T12:06:16.876Z,8.71
2023-03-16T12:09:39.456Z,8.68
2023-03-16T12:12:56.131Z,8.75
2023-03-16T12:16:20.044Z,8.67
2023-03-16T12:19:32.264Z,8.60
2023-03-16T12:22:42.250Z,8.77
2023-03-16T12:25:47.742Z,9.06
2023-03-16T12:28:53.174Z,9.30
2023-03-16T12:32:09.888Z,9.35
2023-03-16T12:35:34.151Z,9.25
2023-03-16T12:38:54.363Z,9.22
2023-03-16T12:42:06.320Z,9.34
2023-03-16T12:45:28.342Z,9.54
2023-03-16T12:48:37.580Z,9.74
2023-03-16T12:51:43.531Z,9.97
2023-03-16T12:54:52.177Z,10.12
2023-03-16T12:58:02.241Z,10.06
2023-03-16T13:01:11.365Z,9.90
2023-03-16T13:04:21.577Z,9.66
2023-03-16T13:07:28.479Z,9.38
2023-03-16T13:10:31.732Z,9.12
2023-03-16T13:13:36.392Z,8.89
2023-03-16T13:16:41.033Z,8.71
2023-03-16T13:19:57.784Z,8.65
2023-03-16T13:23:22.462Z,8.66
2023-03-16T13:26:28.358Z,8.73
2023-03-16T13:29:33.506Z,8.78
2023-03-16T13:32:38.839Z,8.77
2023-03-16T13:35:42.235Z,8.70
2023-03-16T13:38:58.640Z,8.59
2023-03-16T13:42:12.816Z,8.46
2023-03-16T13:45:21.344Z,8.33
2023-03-16T13:48:25.211Z,8.23
2023-03-16T13:51:33.232Z,8.19
2023-03-16T13:54:37.345Z,8.24
2023-03-16T13:57:44.132Z,8.32
2023-03-16T14:00:47.296Z,8.43
2023-03-16T14:03:51.134Z,8.56
2023-03-16T14:07:03.889Z,8.69
2023-03-16T14:10:12.312Z,8.81
2023-03-16T14:13:33.013Z,8.81
2023-03-16T14:16:36.335Z,8.76
2023-03-16T14:19:46.724Z,8.66
2023-03-16T14:22:54.053Z,8.54
2023-03-16T14:25:57.429Z,8.44
2023-03-16T14:29:18.480Z,8.37
2023-03-16T14:32:30.392Z,8.26
2023-03-16T14:35:41.411Z,8.15
2023-03-16T14:38:48.866Z,8.05
2023-03-16T14:41:52.443Z,7.96
2023-03-16T14:45:00.510Z,7.87
2023-03-16T14:48:08.733Z,7.80
2023-03-16T14:51:14.741Z,7.74
2023-03-16T14:54:21.867Z,7.73
2023-03-16T14:57:28.751Z,7.72
2023-03-16T15:00:37.175Z,7.72
2023-03-16T15:03:46.649Z,7.72
2023-03-16T15:06:50.076Z,7.72
2023-03-16T15:09:55.375Z,7.72
2023-03-16T15:13:06.162Z,7.69
2023-03-16T15:16:14.207Z,7.67
2023-03-16T15:19:17.436Z,7.64
2023-03-16T15:22:39.355Z,7.61
2023-03-16T15:25:48.232Z,7.58
2023-03-16T15:28:51.249Z,7.56
2023-03-16T15:31:54.750Z,7.53
2023-03-16T15:34:58.312Z,7.50
2023-03-16T15:38:05.072Z,7.48
2023-03-16T15:41:11.733Z,7.46
2023-03-16T15:44:14.958Z,7.44
2023-03-16T15:47:17.998Z,7.42
2023-03-16T15:50:24.816Z,7.40
2023-03-16T15:53:40.077Z,7.39
2023-03-16T15:56:53.824Z,7.37
2023-03-16T16:00:00.214Z,7.34
2023-03-16T16:03:05.496Z,7.34
2023-03-16T16:06:11.781Z,7.33
2023-03-16T16:09:15.788Z,7.31
2023-03-16T16:12:21.432Z,7.30
2023-03-16T16:15:38.326Z,7.28
2023-03-16T16:18:41.889Z,7.27
2023-03-16T16:21:46.443Z,7.25
2023-03-16T16:24:49.377Z,7.23
2023-03-16T16:27:52.395Z,7.20
2023-03-16T16:30:56.815Z,7.17
2023-03-16T16:33:59.984Z,7.13
2023-03-16T16:37:03.073Z,7.09
2023-03-16T16:40:06.631Z,7.04
2023-03-16T16:43:14.239Z,6.99
2023-03-16T16:46:24.050Z,6.91
2023-03-16T16:49:30.653Z,6.83
2023-03-16T16:52:33.699Z,6.74
2023-03-16T16:55:36.747Z,6.65
2023-03-16T16:58:40.692Z,6.57
2023-03-16T17:01:47.410Z,6.47
2023-03-16T17:04:53.715Z,6.37
2023-03-16T17:07:56.728Z,6.25
2023-03-16T17:11:00.092Z,6.15
2023-03-16T17:14:05.987Z,6.06
2023-03-16T17:17:17.568Z,5.95
2023-03-16T17:20:25.461Z,5.85
2023-03-16T17:23:35.121Z,5.78
2023-03-16T17:26:43.889Z,5.70
2023-03-16T17:29:46.969Z,5.63
2023-03-16T17:32:52.050Z,5.57
2023-03-16T17:35:55.243Z,5.50
2023-03-16T17:39:00.212Z,5.42
2023-03-16T17:42:13.791Z,5.35
2023-03-16T17:45:24.200Z,5.30
2023-03-16T17:48:27.186Z,5.23
2023-03-16T17:51:32.345Z,5.18
2023-03-16T17:54:35.337Z,5.13
2023-03-16T17:57:38.684Z,5.07
2023-03-16T18:00:42.452Z,5.02
2023-03-16T18:03:46.185Z,4.98
2023-03-16T18:06:49.724Z,4.92
2023-03-16T18:09:53.163Z,4.87
2023-03-16T18:13:00.792Z,4.82
2023-03-16T18:16:06.151Z,4.76
2023-03-16T18:19:21.546Z,4.69
2023-03-16T18:22:25.053Z,4.64
2023-03-16T18:25:30.524Z,4.59
2023-03-16T18:28:34.823Z,4.55
2023-03-16T18:31:37.917Z,4.50
2023-03-16T18:34:42.186Z,4.45
2023-03-16T18:37:45.295Z,4.40
2023-03-16T18:40:48.583Z,4.35
2023-03-16T18:43:55.066Z,4.32
2023-03-16T18:47:02.973Z,4.27
2023-03-16T18:50:28.781Z,4.24
2023-03-16T18:53:32.799Z,4.21
2023-03-16T18:56:43.171Z,4.18
2023-03-16T18:59:47.899Z,4.15
2023-03-16T19:02:58.904Z,4.11
2023-03-16T19:06:02.206Z,4.09
2023-03-16T19:09:13.713Z,4.06
2023-03-16T19:12:18.322Z,4.04
2023-03-16T19:15:34.002Z,4.01
2023-03-16T19:18:45.846Z,4.00
2023-03-16T19:21:51.839Z,3.97
2023-03-16T19:24:56.115Z,3.94
2023-03-16T19:28:00.144Z,3.92
2023-03-16T19:31:20.457Z,3.90
2023-03-16T19:34:24.033Z,3.88
2023-03-16T19:37:30.080Z,3.85
2023-03-16T19:40:33.072Z,3.83
2023-03-16T19:43:36.191Z,3.80
2023-03-16T19:46:40.059Z,3.79
2023-03-16T19:49:43.051Z,3.75
2023-03-16T19:52:46.996Z,3.72
2023-03-16T19:55:52.317Z,3.69
2023-03-16T19:58:56.303Z,3.66
2023-03-16T20:02:00.150Z,3.63
2023-03-16T20:05:03.695Z,3.60
2023-03-16T20:08:28.010Z,3.57
2023-03-16T20:11:32.389Z,3.55
2023-03-16T20:14:35.458Z,3.52
2023-03-16T20:17:38.595Z,3.50
2023-03-16T20:20:43.350Z,3.47
2023-03-16T20:23:46.400Z,3.46
2023-03-16T20:26:51.445Z,3.44
2023-03-16T20:29:54.538Z,3.43
2023-03-16T20:32:57.724Z,3.42
2023-03-16T20:36:01.251Z,3.41
2023-03-16T20:39:04.357Z,3.39
2023-03-16T20:42:16.913Z,3.38
2023-03-16T20:45:26.183Z,3.35
2023-03-16T20:48:29.467Z,3.33
2023-03-16T20:51:32.863Z,3.30
2023-03-16T20:54:35.956Z,3.30
2023-03-16T20:57:40.200Z,3.28
2023-03-16T21:00:44.394Z,3.26
2023-03-16T21:03:58.628Z,3.24
2023-03-16T21:07:01.587Z,3.23
2023-03-16T21:10:05.068Z,3.22
2023-03-16T21:13:17.469Z,3.20
2023-03-16T21:16:21.820Z,3.19
2023-03-16T21:19:25.104Z,3.16
2023-03-16T21:22:31.274Z,3.15
2023-03-16T21:25:40.559Z,3.15
2023-03-16T21:28:46.524Z,3.14
2023-03-16T21:31:49.913Z,3.12
2023-03-16T21:34:54.665Z,3.10
2023-03-16T21:37:58.153Z,3.09
2023-03-16T21:41:01.273Z,3.06
2023-03-16T21:44:04.325Z,3.05
2023-03-16T21:47:26.213Z,3.02
2023-03-16T21:50:33.412Z,2.99
2023-03-16T21:53:36.440Z,2.96
2023-03-16T21:56:39.416Z,2.94
2023-03-16T21:59:42.523Z,2.91
2023-03-16T22:02:47.596Z,2.88
2023-03-16T22:05:51.180Z,2.88
2023-03-16T22:08:55.618Z,2.87
2023-03-16T22:11:58.642Z,2.86
2023-03-16T22:15:01.750Z,2.85
2023-03-16T22:18:08.802Z,2.85
2023-03-16T22:21:30.026Z,2.84
2023-03-16T22:24:35.834Z,2.82
2023-03-16T22:27:39.050Z,2.81
2023-03-16T22:30:42.934Z,2.79
2023-03-16T22:33:48.742Z,2.78
2023-03-16T22:36:52.155Z,2.77
2023-03-16T22:39:57.408Z,2.76
2023-03-16T22:43:04.546Z,2.76
2023-03-16T22:46:23.420Z,2.75
2023-03-16T22:49:28.598Z,2.75
2023-03-16T22:52:35.231Z,2.75
2023-03-16T22:55:40.332Z,2.75
2023-03-16T22:58:51.330Z,2.74
2023-03-16T23:01:54.416Z,2.73
2023-03-16T23:04:57.642Z,2.71
2023-03-16T23:08:02.655Z,2.70
2023-03-16T23:11:05.748Z,2.69
2023-03-16T23:14:23.684Z,2.68
2023-03-16T23:17:27.086Z,2.67
2023-03-16T23:20:33.558Z,2.67
2023-03-16T23:23:36.624Z,2.66
2023-03-16T23:26:39.720Z,2.65
2023-03-16T23:29:42.857Z,2.63
2023-03-16T23:32:45.952Z,2.61
2023-03-16T23:35:48.986Z,2.58
2023-03-16T23:38:52.237Z,2.57
2023-03-16T23:41:56.338Z,2.55
2023-03-16T23:45:07.760Z,2.54
2023-03-16T23:48:15.415Z,2.52
2023-03-16T23:51:25.814Z,2.52
2023-03-16T23:54:31.696Z,2.50
2023-03-16T23:57:34.739Z,2.48
